sensor_id;sensor_type;location;lat;lon;timestamp;temperature;humidity
1329;DHT22;658;48.820;9.354;2022-12-29T00:01:51;22.50;45.80
1329;DHT22;658;48.820;9.354;2022-12-29T00:05:56;22.50;45.80
1329;DHT22;658;48.820;9.354;2022-12-29T00:09:57;22.50;46.00
1329;DHT22;658;48.820;9.354;2022-12-29T00:13:58;22.40;45.90
1329;DHT22;658;48.820;9.354;2022-12-29T00:18:17;22.40;46.00
1329;DHT22;658;48.820;9.354;2022-12-29T00:22:18;22.40;45.90
1329;DHT22;658;48.820;9.354;2022-12-29T00:26:37;22.40;46.10
1329;DHT22;658;48.820;9.354;2022-12-29T00:31:00;22.40;46.10
1329;DHT22;658;48.820;9.354;2022-12-29T00:35:28;22.40;46.10
1329;DHT22;658;48.820;9.354;2022-12-29T00:39:29;22.40;46.10
1329;DHT22;658;48.820;9.354;2022-12-29T00:43:48;22.30;46.10
1329;DHT22;658;48.820;9.354;2022-12-29T00:48:07;22.30;46.10
1329;DHT22;658;48.820;9.354;2022-12-29T00:52:10;22.30;46.10
1329;DHT22;658;48.820;9.354;2022-12-29T00:56:11;22.30;46.10
1329;DHT22;658;48.820;9.354;2022-12-29T01:00:12;22.30;46.10
1329;DHT22;658;48.820;9.354;2022-12-29T01:04:13;22.30;46.10
1329;DHT22;658;48.820;9.354;2022-12-29T01:08:14;22.30;46.10
1329;DHT22;658;48.820;9.354;2022-12-29T01:12:14;22.30;46.10
1329;DHT22;658;48.820;9.354;2022-12-29T01:16:17;22.20;46.10
1329;DHT22;658;48.820;9.354;2022-12-29T01:20:18;22.20;46.20
1329;DHT22;658;48.820;9.354;2022-12-29T01:24:20;22.20;46.20
1329;DHT22;658;48.820;9.354;2022-12-29T01:28:21;22.20;46.20
1329;DHT22;658;48.820;9.354;2022-12-29T01:32:22;22.20;46.20
1329;DHT22;658;48.820;9.354;2022-12-29T01:36:24;22.20;46.30
1329;DHT22;658;48.820;9.354;2022-12-29T01:40:25;22.20;46.30
1329;DHT22;658;48.820;9.354;2022-12-29T01:44:55;22.20;46.30
1329;DHT22;658;48.820;9.354;2022-12-29T01:49:14;22.20;46.40
1329;DHT22;658;48.820;9.354;2022-12-29T01:53:20;22.10;46.20
1329;DHT22;658;48.820;9.354;2022-12-29T01:57:28;22.10;46.10
1329;DHT22;658;48.820;9.354;2022-12-29T02:01:30;22.10;46.20
1329;DHT22;658;48.820;9.354;2022-12-29T02:05:47;22.10;46.10
1329;DHT22;658;48.820;9.354;2022-12-29T02:09:51;22.10;46.00
1329;DHT22;658;48.820;9.354;2022-12-29T02:13:53;22.10;46.10
1329;DHT22;658;48.820;9.354;2022-12-29T02:18:05;22.10;46.10
1329;DHT22;658;48.820;9.354;2022-12-29T02:26:44;22.10;46.10
1329;DHT22;658;48.820;9.354;2022-12-29T02:35:28;22.10;45.90
1329;DHT22;658;48.820;9.354;2022-12-29T02:39:37;22.10;45.90
1329;DHT22;658;48.820;9.354;2022-12-29T02:52:07;22.10;45.80
1329;DHT22;658;48.820;9.354;2022-12-29T02:56:11;22.10;45.80
1329;DHT22;658;48.820;9.354;2022-12-29T03:00:15;22.10;45.70
1329;DHT22;658;48.820;9.354;2022-12-29T03:04:39;22.10;45.70
1329;DHT22;658;48.820;9.354;2022-12-29T03:18:05;22.00;45.70
1329;DHT22;658;48.820;9.354;2022-12-29T03:22:21;22.00;45.60
1329;DHT22;658;48.820;9.354;2022-12-29T03:26:31;22.00;45.60
1329;DHT22;658;48.820;9.354;2022-12-29T03:30:34;22.00;45.50
1329;DHT22;658;48.820;9.354;2022-12-29T03:34:36;22.00;45.60
1329;DHT22;658;48.820;9.354;2022-12-29T03:38:47;22.00;45.50
1329;DHT22;658;48.820;9.354;2022-12-29T03:42:50;22.00;45.50
1329;DHT22;658;48.820;9.354;2022-12-29T03:46:52;22.00;45.50
1329;DHT22;658;48.820;9.354;2022-12-29T03:50:53;22.00;45.50
1329;DHT22;658;48.820;9.354;2022-12-29T03:54:53;22.00;45.50
1329;DHT22;658;48.820;9.354;2022-12-29T03:58:54;22.00;45.50
1329;DHT22;658;48.820;9.354;2022-12-29T04:02:55;22.00;45.60
1329;DHT22;658;48.820;9.354;2022-12-29T04:06:55;22.00;45.60
1329;DHT22;658;48.820;9.354;2022-12-29T04:10:56;22.00;46.00
1329;DHT22;658;48.820;9.354;2022-12-29T04:14:56;22.00;45.40
1329;DHT22;658;48.820;9.354;2022-12-29T04:18:57;21.90;45.40
1329;DHT22;658;48.820;9.354;2022-12-29T04:23:05;21.90;45.40
1329;DHT22;658;48.820;9.354;2022-12-29T04:27:06;21.90;45.40
1329;DHT22;658;48.820;9.354;2022-12-29T04:31:07;21.90;45.30
1329;DHT22;658;48.820;9.354;2022-12-29T04:35:07;21.90;45.30
1329;DHT22;658;48.820;9.354;2022-12-29T04:39:08;21.90;45.20
1329;DHT22;658;48.820;9.354;2022-12-29T04:43:09;21.90;45.20
1329;DHT22;658;48.820;9.354;2022-12-29T04:47:10;21.90;45.20
1329;DHT22;658;48.820;9.354;2022-12-29T04:51:11;21.90;45.20
1329;DHT22;658;48.820;9.354;2022-12-29T04:55:11;21.90;45.20
1329;DHT22;658;48.820;9.354;2022-12-29T04:59:12;21.90;45.20
1329;DHT22;658;48.820;9.354;2022-12-29T05:03:13;21.90;45.20
1329;DHT22;658;48.820;9.354;2022-12-29T05:07:13;22.00;45.20
1329;DHT22;658;48.820;9.354;2022-12-29T05:11:14;22.00;45.00
1329;DHT22;658;48.820;9.354;2022-12-29T05:15:14;22.00;45.00
1329;DHT22;658;48.820;9.354;2022-12-29T05:19:15;22.00;44.90
1329;DHT22;658;48.820;9.354;2022-12-29T05:23:16;22.00;44.90
1329;DHT22;658;48.820;9.354;2022-12-29T05:27:17;22.00;45.00
1329;DHT22;658;48.820;9.354;2022-12-29T05:31:18;22.00;45.00
1329;DHT22;658;48.820;9.354;2022-12-29T05:35:18;22.00;44.90
1329;DHT22;658;48.820;9.354;2022-12-29T05:39:19;22.00;44.90
1329;DHT22;658;48.820;9.354;2022-12-29T05:43:19;22.00;44.90
1329;DHT22;658;48.820;9.354;2022-12-29T05:47:20;22.00;44.90
1329;DHT22;658;48.820;9.354;2022-12-29T05:51:21;22.00;45.00
1329;DHT22;658;48.820;9.354;2022-12-29T05:55:21;22.00;44.90
1329;DHT22;658;48.820;9.354;2022-12-29T05:59:22;22.00;44.90
1329;DHT22;658;48.820;9.354;2022-12-29T06:03:22;22.00;44.90
1329;DHT22;658;48.820;9.354;2022-12-29T06:07:23;22.00;45.40
1329;DHT22;658;48.820;9.354;2022-12-29T06:11:24;22.00;45.00
1329;DHT22;658;48.820;9.354;2022-12-29T06:15:24;22.00;44.90
1329;DHT22;658;48.820;9.354;2022-12-29T06:19:25;22.00;44.80
1329;DHT22;658;48.820;9.354;2022-12-29T06:23:25;22.00;44.80
1329;DHT22;658;48.820;9.354;2022-12-29T06:27:26;22.00;44.80
1329;DHT22;658;48.820;9.354;2022-12-29T06:31:27;22.00;44.80
1329;DHT22;658;48.820;9.354;2022-12-29T06:35:27;22.00;44.80
1329;DHT22;658;48.820;9.354;2022-12-29T06:39:28;22.00;44.80
1329;DHT22;658;48.820;9.354;2022-12-29T06:43:29;21.90;44.70
1329;DHT22;658;48.820;9.354;2022-12-29T06:47:30;22.00;44.90
1329;DHT22;658;48.820;9.354;2022-12-29T06:51:31;22.00;44.70
1329;DHT22;658;48.820;9.354;2022-12-29T06:55:32;22.00;44.80
1329;DHT22;658;48.820;9.354;2022-12-29T06:59:32;21.90;44.70
1329;DHT22;658;48.820;9.354;2022-12-29T07:03:33;21.90;44.70
1329;DHT22;658;48.820;9.354;2022-12-29T07:07:33;22.00;44.80
1329;DHT22;658;48.820;9.354;2022-12-29T07:11:34;21.90;44.70
1329;DHT22;658;48.820;9.354;2022-12-29T07:15:36;21.90;44.70
1329;DHT22;658;48.820;9.354;2022-12-29T07:19:37;21.90;44.70
1329;DHT22;658;48.820;9.354;2022-12-29T07:23:38;21.90;44.60
1329;DHT22;658;48.820;9.354;2022-12-29T07:27:38;21.90;44.60
1329;DHT22;658;48.820;9.354;2022-12-29T07:31:39;21.90;44.70
1329;DHT22;658;48.820;9.354;2022-12-29T07:35:39;21.90;44.60
1329;DHT22;658;48.820;9.354;2022-12-29T07:39:40;21.90;44.60
1329;DHT22;658;48.820;9.354;2022-12-29T07:43:40;21.90;44.50
1329;DHT22;658;48.820;9.354;2022-12-29T07:47:41;21.90;44.60
1329;DHT22;658;48.820;9.354;2022-12-29T07:51:42;21.90;44.60
1329;DHT22;658;48.820;9.354;2022-12-29T07:55:42;21.90;44.70
1329;DHT22;658;48.820;9.354;2022-12-29T07:59:43;21.90;44.70
1329;DHT22;658;48.820;9.354;2022-12-29T08:03:43;21.90;44.80
1329;DHT22;658;48.820;9.354;2022-12-29T08:07:45;21.90;44.60
1329;DHT22;658;48.820;9.354;2022-12-29T08:11:46;22.00;44.70
1329;DHT22;658;48.820;9.354;2022-12-29T08:15:46;22.00;44.70
1329;DHT22;658;48.820;9.354;2022-12-29T08:19:47;22.00;44.80
1329;DHT22;658;48.820;9.354;2022-12-29T08:23:48;21.90;45.00
1329;DHT22;658;48.820;9.354;2022-12-29T08:27:48;22.00;45.00
1329;DHT22;658;48.820;9.354;2022-12-29T08:31:49;22.00;44.90
1329;DHT22;658;48.820;9.354;2022-12-29T08:35:49;22.00;44.80
1329;DHT22;658;48.820;9.354;2022-12-29T08:39:50;22.00;44.70
1329;DHT22;658;48.820;9.354;2022-12-29T08:43:50;22.00;44.60
1329;DHT22;658;48.820;9.354;2022-12-29T08:47:51;22.00;44.60
1329;DHT22;658;48.820;9.354;2022-12-29T08:51:52;22.00;44.50
1329;DHT22;658;48.820;9.354;2022-12-29T08:55:59;22.00;44.40
1329;DHT22;658;48.820;9.354;2022-12-29T09:00:00;22.00;44.40
1329;DHT22;658;48.820;9.354;2022-12-29T09:04:00;22.00;44.40
1329;DHT22;658;48.820;9.354;2022-12-29T09:08:01;22.00;44.40
1329;DHT22;658;48.820;9.354;2022-12-29T09:12:02;22.00;44.40
1329;DHT22;658;48.820;9.354;2022-12-29T09:16:03;22.00;44.40
1329;DHT22;658;48.820;9.354;2022-12-29T09:20:04;22.00;44.40
1329;DHT22;658;48.820;9.354;2022-12-29T09:24:05;22.00;44.40
1329;DHT22;658;48.820;9.354;2022-12-29T09:28:05;22.00;44.30
1329;DHT22;658;48.820;9.354;2022-12-29T09:32:07;22.00;44.20
1329;DHT22;658;48.820;9.354;2022-12-29T09:36:08;22.00;43.70
1329;DHT22;658;48.820;9.354;2022-12-29T09:40:38;21.90;44.20
1329;DHT22;658;48.820;9.354;2022-12-29T09:58:45;22.60;43.50
1329;DHT22;658;48.820;9.354;2022-12-29T10:02:58;22.60;43.40
1329;DHT22;658;48.820;9.354;2022-12-29T10:07:17;22.80;43.40
1329;DHT22;658;48.820;9.354;2022-12-29T10:24:26;23.00;42.80
1329;DHT22;658;48.820;9.354;2022-12-29T10:28:42;23.10;42.90
1329;DHT22;658;48.820;9.354;2022-12-29T10:32:51;23.20;42.60
1329;DHT22;658;48.820;9.354;2022-12-29T10:41:28;23.30;42.40
1329;DHT22;658;48.820;9.354;2022-12-29T10:45:33;23.40;42.40
1329;DHT22;658;48.820;9.354;2022-12-29T10:49:39;23.40;42.30
1329;DHT22;658;48.820;9.354;2022-12-29T10:53:47;23.60;42.00
1329;DHT22;658;48.820;9.354;2022-12-29T10:57:49;23.50;42.10
1329;DHT22;658;48.820;9.354;2022-12-29T11:06:05;23.70;41.80
1329;DHT22;658;48.820;9.354;2022-12-29T11:14:36;24.20;40.90
1329;DHT22;658;48.820;9.354;2022-12-29T11:18:37;24.20;41.00
1329;DHT22;658;48.820;9.354;2022-12-29T11:22:43;24.10;41.10
1329;DHT22;658;48.820;9.354;2022-12-29T11:26:44;24.10;41.30
1329;DHT22;658;48.820;9.354;2022-12-29T11:30:59;24.00;41.30
1329;DHT22;658;48.820;9.354;2022-12-29T11:35:00;24.00;41.40
1329;DHT22;658;48.820;9.354;2022-12-29T11:39:02;24.00;41.40
1329;DHT22;658;48.820;9.354;2022-12-29T11:43:03;24.10;42.00
1329;DHT22;658;48.820;9.354;2022-12-29T11:47:05;24.00;41.50
1329;DHT22;658;48.820;9.354;2022-12-29T11:51:08;24.00;41.60
1329;DHT22;658;48.820;9.354;2022-12-29T11:55:18;24.10;41.60
1329;DHT22;658;48.820;9.354;2022-12-29T12:03:27;24.10;41.70
1329;DHT22;658;48.820;9.354;2022-12-29T12:07:41;24.10;41.70
1329;DHT22;658;48.820;9.354;2022-12-29T12:11:43;24.00;41.90
1329;DHT22;658;48.820;9.354;2022-12-29T12:15:59;24.00;42.00
1329;DHT22;658;48.820;9.354;2022-12-29T12:20:18;24.00;41.90
1329;DHT22;658;48.820;9.354;2022-12-29T12:24:39;24.00;42.00
1329;DHT22;658;48.820;9.354;2022-12-29T12:33:36;24.00;41.90
1329;DHT22;658;48.820;9.354;2022-12-29T12:59:42;24.20;41.70
1329;DHT22;658;48.820;9.354;2022-12-29T13:12:44;24.40;41.20
1329;DHT22;658;48.820;9.354;2022-12-29T13:17:41;24.70;40.90
1329;DHT22;658;48.820;9.354;2022-12-29T13:30:17;25.10;40.30
1329;DHT22;658;48.820;9.354;2022-12-29T13:38:50;25.20;40.00
1329;DHT22;658;48.820;9.354;2022-12-29T13:42:55;25.00;40.10
1329;DHT22;658;48.820;9.354;2022-12-29T13:47:00;24.90;40.90
1329;DHT22;658;48.820;9.354;2022-12-29T13:51:02;24.80;40.60
1329;DHT22;658;48.820;9.354;2022-12-29T13:55:24;24.70;40.70
1329;DHT22;658;48.820;9.354;2022-12-29T13:59:48;24.80;40.60
1329;DHT22;658;48.820;9.354;2022-12-29T14:03:52;24.80;40.40
1329;DHT22;658;48.820;9.354;2022-12-29T14:08:00;24.80;40.60
1329;DHT22;658;48.820;9.354;2022-12-29T14:12:01;24.60;40.80
1329;DHT22;658;48.820;9.354;2022-12-29T14:16:33;24.90;40.80
1329;DHT22;658;48.820;9.354;2022-12-29T14:20:34;25.70;39.30
1329;DHT22;658;48.820;9.354;2022-12-29T14:28:41;25.90;38.90
1329;DHT22;658;48.820;9.354;2022-12-29T14:33:01;25.60;39.30
1329;DHT22;658;48.820;9.354;2022-12-29T14:37:03;25.30;40.10
1329;DHT22;658;48.820;9.354;2022-12-29T14:41:26;25.00;40.60
1329;DHT22;658;48.820;9.354;2022-12-29T14:45:31;25.10;40.40
1329;DHT22;658;48.820;9.354;2022-12-29T14:49:42;25.10;40.60
1329;DHT22;658;48.820;9.354;2022-12-29T14:53:50;25.00;41.20
1329;DHT22;658;48.820;9.354;2022-12-29T14:57:56;24.80;41.20
1329;DHT22;658;48.820;9.354;2022-12-29T15:01:58;24.70;41.60
1329;DHT22;658;48.820;9.354;2022-12-29T15:06:06;24.60;41.70
1329;DHT22;658;48.820;9.354;2022-12-29T15:10:13;24.50;41.70
1329;DHT22;658;48.820;9.354;2022-12-29T15:18:33;24.40;41.90
1329;DHT22;658;48.820;9.354;2022-12-29T15:22:34;24.40;41.90
1329;DHT22;658;48.820;9.354;2022-12-29T15:26:49;24.30;42.00
1329;DHT22;658;48.820;9.354;2022-12-29T15:30:57;24.30;42.20
1329;DHT22;658;48.820;9.354;2022-12-29T15:39:29;24.20;42.20
1329;DHT22;658;48.820;9.354;2022-12-29T15:43:58;24.20;42.30
1329;DHT22;658;48.820;9.354;2022-12-29T15:48:01;24.10;42.20
1329;DHT22;658;48.820;9.354;2022-12-29T15:52:07;24.10;42.20
1329;DHT22;658;48.820;9.354;2022-12-29T15:56:10;24.10;42.20
1329;DHT22;658;48.820;9.354;2022-12-29T16:00:31;24.00;42.20
1329;DHT22;658;48.820;9.354;2022-12-29T16:04:35;24.00;42.20
1329;DHT22;658;48.820;9.354;2022-12-29T16:08:38;24.00;42.20
1329;DHT22;658;48.820;9.354;2022-12-29T16:12:40;23.90;42.10
1329;DHT22;658;48.820;9.354;2022-12-29T16:16:42;23.90;42.20
1329;DHT22;658;48.820;9.354;2022-12-29T16:20:43;23.90;42.30
1329;DHT22;658;48.820;9.354;2022-12-29T16:24:45;23.80;42.20
1329;DHT22;658;48.820;9.354;2022-12-29T16:28:49;23.90;42.30
1329;DHT22;658;48.820;9.354;2022-12-29T16:32:56;23.90;42.30
1329;DHT22;658;48.820;9.354;2022-12-29T16:37:00;23.80;42.30
1329;DHT22;658;48.820;9.354;2022-12-29T16:41:02;23.70;42.30
1329;DHT22;658;48.820;9.354;2022-12-29T16:49:19;23.70;42.40
1329;DHT22;658;48.820;9.354;2022-12-29T16:53:29;23.70;42.50
1329;DHT22;658;48.820;9.354;2022-12-29T16:57:33;23.70;42.50
1329;DHT22;658;48.820;9.354;2022-12-29T17:01:39;23.70;42.50
1329;DHT22;658;48.820;9.354;2022-12-29T17:05:40;23.60;42.40
1329;DHT22;658;48.820;9.354;2022-12-29T17:09:40;23.60;42.50
1329;DHT22;658;48.820;9.354;2022-12-29T17:13:41;23.60;42.50
1329;DHT22;658;48.820;9.354;2022-12-29T17:17:43;23.60;42.80
1329;DHT22;658;48.820;9.354;2022-12-29T17:21:45;23.60;42.70
1329;DHT22;658;48.820;9.354;2022-12-29T17:25:45;23.60;42.70
1329;DHT22;658;48.820;9.354;2022-12-29T17:29:47;23.50;42.70
1329;DHT22;658;48.820;9.354;2022-12-29T17:33:48;23.50;42.80
1329;DHT22;658;48.820;9.354;2022-12-29T17:37:49;23.50;42.80
1329;DHT22;658;48.820;9.354;2022-12-29T17:41:50;23.60;42.80
1329;DHT22;658;48.820;9.354;2022-12-29T17:45:55;23.50;42.90
1329;DHT22;658;48.820;9.354;2022-12-29T17:49:56;23.50;43.10
1329;DHT22;658;48.820;9.354;2022-12-29T17:53:57;23.40;43.30
1329;DHT22;658;48.820;9.354;2022-12-29T17:57:57;23.40;43.40
1329;DHT22;658;48.820;9.354;2022-12-29T18:01:58;23.40;43.50
1329;DHT22;658;48.820;9.354;2022-12-29T18:06:00;23.40;43.50
1329;DHT22;658;48.820;9.354;2022-12-29T18:10:00;23.40;43.50
1329;DHT22;658;48.820;9.354;2022-12-29T18:14:01;23.40;43.50
1329;DHT22;658;48.820;9.354;2022-12-29T18:18:13;23.40;43.60
1329;DHT22;658;48.820;9.354;2022-12-29T18:22:14;23.30;43.60
1329;DHT22;658;48.820;9.354;2022-12-29T18:30:18;23.30;43.70
1329;DHT22;658;48.820;9.354;2022-12-29T18:34:19;23.40;43.90
1329;DHT22;658;48.820;9.354;2022-12-29T18:38:20;23.40;44.00
1329;DHT22;658;48.820;9.354;2022-12-29T18:42:20;23.30;44.20
1329;DHT22;658;48.820;9.354;2022-12-29T18:46:21;23.30;44.30
1329;DHT22;658;48.820;9.354;2022-12-29T18:50:22;23.30;44.30
1329;DHT22;658;48.820;9.354;2022-12-29T18:54:47;23.30;44.50
1329;DHT22;658;48.820;9.354;2022-12-29T18:59:00;23.30;44.30
1329;DHT22;658;48.820;9.354;2022-12-29T19:03:11;23.30;44.20
1329;DHT22;658;48.820;9.354;2022-12-29T19:07:12;23.30;44.40
1329;DHT22;658;48.820;9.354;2022-12-29T19:11:13;23.30;44.40
1329;DHT22;658;48.820;9.354;2022-12-29T19:15:24;23.30;44.40
1329;DHT22;658;48.820;9.354;2022-12-29T19:19:25;23.30;44.50
1329;DHT22;658;48.820;9.354;2022-12-29T19:23:26;23.30;44.50
1329;DHT22;658;48.820;9.354;2022-12-29T19:27:26;23.30;44.40
1329;DHT22;658;48.820;9.354;2022-12-29T19:31:27;23.30;44.40
1329;DHT22;658;48.820;9.354;2022-12-29T19:35:28;23.40;44.40
1329;DHT22;658;48.820;9.354;2022-12-29T19:39:29;23.40;44.40
1329;DHT22;658;48.820;9.354;2022-12-29T19:43:30;23.40;44.40
1329;DHT22;658;48.820;9.354;2022-12-29T19:47:31;23.40;44.50
1329;DHT22;658;48.820;9.354;2022-12-29T19:51:32;23.30;44.40
1329;DHT22;658;48.820;9.354;2022-12-29T19:55:32;23.30;44.30
1329;DHT22;658;48.820;9.354;2022-12-29T19:59:33;23.40;44.50
1329;DHT22;658;48.820;9.354;2022-12-29T20:03:34;23.40;44.50
1329;DHT22;658;48.820;9.354;2022-12-29T20:07:35;23.50;44.60
1329;DHT22;658;48.820;9.354;2022-12-29T20:11:36;23.40;44.40
1329;DHT22;658;48.820;9.354;2022-12-29T20:15:36;23.40;44.30
1329;DHT22;658;48.820;9.354;2022-12-29T20:19:42;23.50;44.20
1329;DHT22;658;48.820;9.354;2022-12-29T20:23:44;23.50;44.30
1329;DHT22;658;48.820;9.354;2022-12-29T20:27:45;23.40;44.30
1329;DHT22;658;48.820;9.354;2022-12-29T20:31:46;23.40;44.40
1329;DHT22;658;48.820;9.354;2022-12-29T20:35:47;23.40;44.60
1329;DHT22;658;48.820;9.354;2022-12-29T20:39:48;23.50;44.40
1329;DHT22;658;48.820;9.354;2022-12-29T20:43:49;23.40;44.40
1329;DHT22;658;48.820;9.354;2022-12-29T20:47:50;23.40;44.40
1329;DHT22;658;48.820;9.354;2022-12-29T20:51:51;23.50;44.50
1329;DHT22;658;48.820;9.354;2022-12-29T20:55:53;23.50;44.40
1329;DHT22;658;48.820;9.354;2022-12-29T20:59:53;23.40;44.30
1329;DHT22;658;48.820;9.354;2022-12-29T21:03:54;23.40;44.40
1329;DHT22;658;48.820;9.354;2022-12-29T21:07:55;23.40;44.40
1329;DHT22;658;48.820;9.354;2022-12-29T21:11:58;23.40;44.40
1329;DHT22;658;48.820;9.354;2022-12-29T21:16:05;23.40;44.40
1329;DHT22;658;48.820;9.354;2022-12-29T21:20:06;23.50;44.30
1329;DHT22;658;48.820;9.354;2022-12-29T21:24:07;23.50;44.30
1329;DHT22;658;48.820;9.354;2022-12-29T21:28:09;23.50;44.10
1329;DHT22;658;48.820;9.354;2022-12-29T21:32:13;23.50;44.20
1329;DHT22;658;48.820;9.354;2022-12-29T21:36:13;23.50;44.10
1329;DHT22;658;48.820;9.354;2022-12-29T21:40:14;23.50;44.10
1329;DHT22;658;48.820;9.354;2022-12-29T21:44:15;23.50;44.20
1329;DHT22;658;48.820;9.354;2022-12-29T21:48:34;23.50;44.20
1329;DHT22;658;48.820;9.354;2022-12-29T21:52:35;23.40;44.20
1329;DHT22;658;48.820;9.354;2022-12-29T21:56:35;23.40;44.20
1329;DHT22;658;48.820;9.354;2022-12-29T22:00:36;23.40;44.30
1329;DHT22;658;48.820;9.354;2022-12-29T22:04:55;23.30;44.20
1329;DHT22;658;48.820;9.354;2022-12-29T22:09:14;23.40;44.30
1329;DHT22;658;48.820;9.354;2022-12-29T22:13:36;23.30;44.20
1329;DHT22;658;48.820;9.354;2022-12-29T22:17:37;23.40;44.20
1329;DHT22;658;48.820;9.354;2022-12-29T22:21:37;23.40;44.20
1329;DHT22;658;48.820;9.354;2022-12-29T22:25:38;23.40;44.10
1329;DHT22;658;48.820;9.354;2022-12-29T22:29:39;23.50;44.00
1329;DHT22;658;48.820;9.354;2022-12-29T22:33:44;23.40;43.90
1329;DHT22;658;48.820;9.354;2022-12-29T22:37:44;23.40;44.00
1329;DHT22;658;48.820;9.354;2022-12-29T22:41:45;23.30;44.00
1329;DHT22;658;48.820;9.354;2022-12-29T22:45:46;23.00;43.80
1329;DHT22;658;48.820;9.354;2022-12-29T22:49:46;22.80;44.00
1329;DHT22;658;48.820;9.354;2022-12-29T22:53:48;22.70;44.40
1329;DHT22;658;48.820;9.354;2022-12-29T22:57:49;22.70;44.20
1329;DHT22;658;48.820;9.354;2022-12-29T23:01:49;22.70;44.20
1329;DHT22;658;48.820;9.354;2022-12-29T23:06:01;22.70;44.30
1329;DHT22;658;48.820;9.354;2022-12-29T23:10:04;22.70;44.50
1329;DHT22;658;48.820;9.354;2022-12-29T23:14:04;22.60;44.50
1329;DHT22;658;48.820;9.354;2022-12-29T23:18:05;22.60;44.70
1329;DHT22;658;48.820;9.354;2022-12-29T23:22:05;22.50;44.70
1329;DHT22;658;48.820;9.354;2022-12-29T23:26:06;22.50;44.90
1329;DHT22;658;48.820;9.354;2022-12-29T23:30:07;22.50;45.00
1329;DHT22;658;48.820;9.354;2022-12-29T23:34:09;22.50;45.00
1329;DHT22;658;48.820;9.354;2022-12-29T23:38:10;22.40;45.10
1329;DHT22;658;48.820;9.354;2022-12-29T23:42:11;22.40;45.10
1329;DHT22;658;48.820;9.354;2022-12-29T23:46:14;22.30;45.30
1329;DHT22;658;48.820;9.354;2022-12-29T23:50:15;22.30;45.40
1329;DHT22;658;48.820;9.354;2022-12-29T23:54:15;22.30;45.50
1329;DHT22;658;48.820;9.354;2022-12-29T23:58:16;22.30;45.50
